sensor_id;sensor_type;location;lat;lon;timestamp;P1;durP1;ratioP1;P2;durP2;ratioP2
9374;SDS011;4727;51.202;6.344;2022-10-31T04:30:50;23.93;;;16.70;;
9374;SDS011;4727;51.202;6.344;2022-10-31T04:33:16;21.93;;;16.17;;
9374;SDS011;4727;51.202;6.344;2022-10-31T04:35:42;21.90;;;16.13;;
9374;SDS011;4727;51.202;6.344;2022-10-31T04:38:07;21.70;;;15.63;;
9374;SDS011;4727;51.202;6.344;2022-10-31T04:40:33;18.23;;;15.93;;
9374;SDS011;4727;51.202;6.344;2022-10-31T04:42:58;20.53;;;15.83;;
9374;SDS011;4727;51.202;6.344;2022-10-31T04:45:24;23.90;;;16.13;;
9374;SDS011;4727;51.202;6.344;2022-10-31T04:47:50;22.93;;;16.07;;
9374;SDS011;4727;51.202;6.344;2022-10-31T04:50:15;21.53;;;15.70;;
9374;SDS011;4727;51.202;6.344;2022-10-31T04:52:41;20.30;;;14.57;;
9374;SDS011;4727;51.202;6.344;2022-10-31T04:55:10;19.57;;;15.10;;
9374;SDS011;4727;51.202;6.344;2022-10-31T04:57:43;20.93;;;15.30;;
9374;SDS011;4727;51.202;6.344;2022-10-31T05:00:11;21.03;;;16.13;;
9374;SDS011;4727;51.202;6.344;2022-10-31T05:02:44;21.20;;;15.53;;
9374;SDS011;4727;51.202;6.344;2022-10-31T05:05:14;20.33;;;14.87;;
9374;SDS011;4727;51.202;6.344;2022-10-31T05:07:42;19.53;;;16.07;;
9374;SDS011;4727;51.202;6.344;2022-10-31T05:10:10;19.30;;;15.80;;
9374;SDS011;4727;51.202;6.344;2022-10-31T05:12:37;20.83;;;15.50;;
9374;SDS011;4727;51.202;6.344;2022-10-31T05:15:03;23.13;;;15.47;;
9374;SDS011;4727;51.202;6.344;2022-10-31T05:17:30;20.57;;;15.77;;
9374;SDS011;4727;51.202;6.344;2022-10-31T05:19:56;21.10;;;16.17;;
9374;SDS011;4727;51.202;6.344;2022-10-31T05:22:22;19.40;;;15.60;;
9374;SDS011;4727;51.202;6.344;2022-10-31T05:24:47;22.20;;;18.13;;
9374;SDS011;4727;51.202;6.344;2022-10-31T05:27:13;21.73;;;17.80;;
9374;SDS011;4727;51.202;6.344;2022-10-31T05:29:38;19.23;;;15.23;;
9374;SDS011;4727;51.202;6.344;2022-10-31T05:32:04;22.17;;;14.67;;
9374;SDS011;4727;51.202;6.344;2022-10-31T05:34:29;19.87;;;15.83;;
9374;SDS011;4727;51.202;6.344;2022-10-31T05:36:55;18.40;;;14.87;;
9374;SDS011;4727;51.202;6.344;2022-10-31T05:39:20;17.93;;;15.37;;
9374;SDS011;4727;51.202;6.344;2022-10-31T05:41:46;17.20;;;14.73;;
9374;SDS011;4727;51.202;6.344;2022-10-31T05:44:12;20.17;;;14.83;;
9374;SDS011;4727;51.202;6.344;2022-10-31T05:46:37;22.13;;;15.70;;
9374;SDS011;4727;51.202;6.344;2022-10-31T05:49:10;19.63;;;14.47;;
9374;SDS011;4727;51.202;6.344;2022-10-31T05:51:36;20.53;;;14.47;;
9374;SDS011;4727;51.202;6.344;2022-10-31T05:54:01;21.60;;;15.63;;
9374;SDS011;4727;51.202;6.344;2022-10-31T05:56:27;34.43;;;27.47;;
9374;SDS011;4727;51.202;6.344;2022-10-31T05:58:52;29.43;;;22.67;;
9374;SDS011;4727;51.202;6.344;2022-10-31T06:01:18;21.53;;;15.50;;
9374;SDS011;4727;51.202;6.344;2022-10-31T06:03:44;22.03;;;16.23;;
9374;SDS011;4727;51.202;6.344;2022-10-31T06:06:09;17.53;;;14.47;;
9374;SDS011;4727;51.202;6.344;2022-10-31T06:08:35;23.67;;;15.43;;
9374;SDS011;4727;51.202;6.344;2022-10-31T06:11:01;18.77;;;14.97;;
9374;SDS011;4727;51.202;6.344;2022-10-31T06:13:27;19.53;;;15.40;;
9374;SDS011;4727;51.202;6.344;2022-10-31T06:15:52;19.97;;;15.97;;
9374;SDS011;4727;51.202;6.344;2022-10-31T06:18:18;22.67;;;15.77;;
9374;SDS011;4727;51.202;6.344;2022-10-31T06:20:43;24.73;;;17.93;;
9374;SDS011;4727;51.202;6.344;2022-10-31T06:23:09;24.23;;;16.93;;
9374;SDS011;4727;51.202;6.344;2022-10-31T06:25:34;23.00;;;18.03;;
9374;SDS011;4727;51.202;6.344;2022-10-31T06:28:00;25.30;;;17.10;;
9374;SDS011;4727;51.202;6.344;2022-10-31T06:30:26;25.53;;;16.43;;
9374;SDS011;4727;51.202;6.344;2022-10-31T06:32:51;23.50;;;17.17;;
9374;SDS011;4727;51.202;6.344;2022-10-31T06:35:17;23.70;;;16.57;;
9374;SDS011;4727;51.202;6.344;2022-10-31T06:37:50;24.37;;;16.33;;
9374;SDS011;4727;51.202;6.344;2022-10-31T06:40:16;24.53;;;16.67;;
9374;SDS011;4727;51.202;6.344;2022-10-31T06:42:41;22.77;;;16.17;;
9374;SDS011;4727;51.202;6.344;2022-10-31T06:45:07;21.57;;;16.83;;
9374;SDS011;4727;51.202;6.344;2022-10-31T06:47:33;27.77;;;17.77;;
9374;SDS011;4727;51.202;6.344;2022-10-31T06:50:01;22.40;;;17.63;;
9374;SDS011;4727;51.202;6.344;2022-10-31T06:52:26;29.97;;;18.43;;
9374;SDS011;4727;51.202;6.344;2022-10-31T06:54:52;24.30;;;18.77;;
9374;SDS011;4727;51.202;6.344;2022-10-31T06:57:17;28.00;;;18.33;;
9374;SDS011;4727;51.202;6.344;2022-10-31T06:59:43;24.23;;;17.63;;
9374;SDS011;4727;51.202;6.344;2022-10-31T07:02:09;24.87;;;19.13;;
9374;SDS011;4727;51.202;6.344;2022-10-31T07:04:35;25.50;;;19.53;;
9374;SDS011;4727;51.202;6.344;2022-10-31T07:07:01;25.93;;;18.37;;
9374;SDS011;4727;51.202;6.344;2022-10-31T07:09:27;23.93;;;17.23;;
9374;SDS011;4727;51.202;6.344;2022-10-31T07:11:52;25.17;;;18.07;;
9374;SDS011;4727;51.202;6.344;2022-10-31T07:14:18;25.07;;;18.40;;
9374;SDS011;4727;51.202;6.344;2022-10-31T07:16:47;26.97;;;17.93;;
9374;SDS011;4727;51.202;6.344;2022-10-31T07:19:14;24.80;;;17.63;;
9374;SDS011;4727;51.202;6.344;2022-10-31T07:21:40;24.63;;;17.50;;
9374;SDS011;4727;51.202;6.344;2022-10-31T07:24:05;26.43;;;17.73;;
9374;SDS011;4727;51.202;6.344;2022-10-31T07:26:31;25.07;;;18.67;;
9374;SDS011;4727;51.202;6.344;2022-10-31T07:28:57;27.17;;;18.70;;
9374;SDS011;4727;51.202;6.344;2022-10-31T07:31:24;27.17;;;19.90;;
9374;SDS011;4727;51.202;6.344;2022-10-31T07:33:49;28.27;;;19.93;;
9374;SDS011;4727;51.202;6.344;2022-10-31T07:36:15;31.30;;;19.37;;
9374;SDS011;4727;51.202;6.344;2022-10-31T07:38:41;24.60;;;18.73;;
9374;SDS011;4727;51.202;6.344;2022-10-31T07:41:06;27.63;;;19.57;;
9374;SDS011;4727;51.202;6.344;2022-10-31T07:43:32;27.87;;;19.27;;
9374;SDS011;4727;51.202;6.344;2022-10-31T07:45:58;27.60;;;18.63;;
9374;SDS011;4727;51.202;6.344;2022-10-31T07:48:23;26.60;;;19.67;;
9374;SDS011;4727;51.202;6.344;2022-10-31T07:50:49;27.70;;;20.00;;
9374;SDS011;4727;51.202;6.344;2022-10-31T07:53:15;25.73;;;18.77;;
9374;SDS011;4727;51.202;6.344;2022-10-31T07:55:41;22.47;;;18.07;;
9374;SDS011;4727;51.202;6.344;2022-10-31T07:58:11;27.07;;;19.27;;
9374;SDS011;4727;51.202;6.344;2022-10-31T08:00:39;30.43;;;19.13;;
9374;SDS011;4727;51.202;6.344;2022-10-31T08:03:06;26.63;;;18.87;;
9374;SDS011;4727;51.202;6.344;2022-10-31T08:05:35;27.20;;;18.90;;
9374;SDS011;4727;51.202;6.344;2022-10-31T08:08:02;26.80;;;18.67;;
9374;SDS011;4727;51.202;6.344;2022-10-31T08:10:28;27.80;;;19.70;;
9374;SDS011;4727;51.202;6.344;2022-10-31T08:12:58;27.77;;;18.23;;
9374;SDS011;4727;51.202;6.344;2022-10-31T08:15:28;26.73;;;18.43;;
9374;SDS011;4727;51.202;6.344;2022-10-31T08:17:54;26.30;;;18.83;;
9374;SDS011;4727;51.202;6.344;2022-10-31T08:20:20;24.33;;;19.03;;
9374;SDS011;4727;51.202;6.344;2022-10-31T08:22:53;30.63;;;18.73;;
9374;SDS011;4727;51.202;6.344;2022-10-31T08:25:23;26.63;;;18.57;;
9374;SDS011;4727;51.202;6.344;2022-10-31T08:27:52;26.13;;;18.20;;
9374;SDS011;4727;51.202;6.344;2022-10-31T08:30:20;27.60;;;18.67;;
9374;SDS011;4727;51.202;6.344;2022-10-31T08:32:47;23.57;;;18.03;;
9374;SDS011;4727;51.202;6.344;2022-10-31T08:35:21;28.00;;;18.70;;
9374;SDS011;4727;51.202;6.344;2022-10-31T08:37:51;24.37;;;17.80;;
9374;SDS011;4727;51.202;6.344;2022-10-31T08:40:20;21.17;;;17.40;;
9374;SDS011;4727;51.202;6.344;2022-10-31T08:42:46;27.10;;;17.70;;
9374;SDS011;4727;51.202;6.344;2022-10-31T08:45:12;27.33;;;18.00;;
9374;SDS011;4727;51.202;6.344;2022-10-31T08:47:38;26.03;;;18.17;;
9374;SDS011;4727;51.202;6.344;2022-10-31T08:50:03;20.53;;;17.00;;
9374;SDS011;4727;51.202;6.344;2022-10-31T08:52:29;27.03;;;17.80;;
9374;SDS011;4727;51.202;6.344;2022-10-31T08:54:55;30.13;;;17.80;;
9374;SDS011;4727;51.202;6.344;2022-10-31T08:57:20;25.57;;;18.33;;
9374;SDS011;4727;51.202;6.344;2022-10-31T08:59:46;24.60;;;17.77;;
9374;SDS011;4727;51.202;6.344;2022-10-31T09:02:11;27.17;;;17.00;;
9374;SDS011;4727;51.202;6.344;2022-10-31T09:04:37;25.43;;;18.93;;
9374;SDS011;4727;51.202;6.344;2022-10-31T09:07:02;24.43;;;18.07;;
9374;SDS011;4727;51.202;6.344;2022-10-31T09:09:28;26.77;;;18.27;;
9374;SDS011;4727;51.202;6.344;2022-10-31T09:11:53;26.50;;;18.37;;
9374;SDS011;4727;51.202;6.344;2022-10-31T09:14:19;26.77;;;17.67;;
9374;SDS011;4727;51.202;6.344;2022-10-31T09:16:45;23.73;;;17.37;;
9374;SDS011;4727;51.202;6.344;2022-10-31T09:19:10;26.37;;;18.03;;
9374;SDS011;4727;51.202;6.344;2022-10-31T09:21:36;29.00;;;17.73;;
9374;SDS011;4727;51.202;6.344;2022-10-31T09:24:01;21.97;;;18.17;;
9374;SDS011;4727;51.202;6.344;2022-10-31T09:26:27;24.07;;;17.80;;
9374;SDS011;4727;51.202;6.344;2022-10-31T09:28:52;21.73;;;17.10;;
9374;SDS011;4727;51.202;6.344;2022-10-31T09:31:18;25.53;;;17.83;;
9374;SDS011;4727;51.202;6.344;2022-10-31T09:33:43;23.27;;;17.00;;
9374;SDS011;4727;51.202;6.344;2022-10-31T09:36:09;22.93;;;17.07;;
9374;SDS011;4727;51.202;6.344;2022-10-31T09:38:34;27.33;;;17.30;;
9374;SDS011;4727;51.202;6.344;2022-10-31T09:41:41;23.73;;;16.63;;
9374;SDS011;4727;51.202;6.344;2022-10-31T09:44:32;19.60;;;15.63;;
9374;SDS011;4727;51.202;6.344;2022-10-31T09:47:21;22.93;;;15.90;;
9374;SDS011;4727;51.202;6.344;2022-10-31T09:50:21;22.00;;;15.03;;
9374;SDS011;4727;51.202;6.344;2022-10-31T09:52:57;21.50;;;14.87;;
9374;SDS011;4727;51.202;6.344;2022-10-31T09:55:44;24.50;;;15.47;;
9374;SDS011;4727;51.202;6.344;2022-10-31T09:58:16;20.13;;;14.77;;
9374;SDS011;4727;51.202;6.344;2022-10-31T10:00:48;20.70;;;15.10;;
9374;SDS011;4727;51.202;6.344;2022-10-31T10:05:51;16.63;;;14.60;;
9374;SDS011;4727;51.202;6.344;2022-10-31T10:08:31;22.47;;;15.20;;
9374;SDS011;4727;51.202;6.344;2022-10-31T10:11:17;20.57;;;14.87;;
9374;SDS011;4727;51.202;6.344;2022-10-31T10:13:58;20.90;;;14.33;;
9374;SDS011;4727;51.202;6.344;2022-10-31T10:16:46;19.60;;;14.77;;
9374;SDS011;4727;51.202;6.344;2022-10-31T10:30:53;15.47;;;13.20;;
9374;SDS011;4727;51.202;6.344;2022-10-31T10:33:28;22.23;;;14.20;;
9374;SDS011;4727;51.202;6.344;2022-10-31T10:36:02;14.83;;;12.70;;
9374;SDS011;4727;51.202;6.344;2022-10-31T10:38:37;18.73;;;12.97;;
9374;SDS011;4727;51.202;6.344;2022-10-31T10:41:11;19.53;;;12.67;;
9374;SDS011;4727;51.202;6.344;2022-10-31T10:43:40;19.47;;;13.00;;
9374;SDS011;4727;51.202;6.344;2022-10-31T10:49:32;15.77;;;12.30;;
9374;SDS011;4727;51.202;6.344;2022-10-31T10:52:13;14.07;;;11.83;;
9374;SDS011;4727;51.202;6.344;2022-10-31T10:55:03;14.90;;;11.57;;
9374;SDS011;4727;51.202;6.344;2022-10-31T11:02:54;24.03;;;12.37;;
9374;SDS011;4727;51.202;6.344;2022-10-31T11:08:27;15.97;;;11.43;;
9374;SDS011;4727;51.202;6.344;2022-10-31T11:11:04;18.50;;;11.53;;
9374;SDS011;4727;51.202;6.344;2022-10-31T11:13:45;16.00;;;11.60;;
9374;SDS011;4727;51.202;6.344;2022-10-31T11:21:42;14.03;;;11.83;;
9374;SDS011;4727;51.202;6.344;2022-10-31T11:26:36;15.67;;;10.70;;
9374;SDS011;4727;51.202;6.344;2022-10-31T11:29:03;13.83;;;11.13;;
9374;SDS011;4727;51.202;6.344;2022-10-31T11:31:30;13.87;;;10.70;;
9374;SDS011;4727;51.202;6.344;2022-10-31T11:34:01;11.63;;;10.37;;
9374;SDS011;4727;51.202;6.344;2022-10-31T11:36:34;14.13;;;10.93;;
9374;SDS011;4727;51.202;6.344;2022-10-31T11:39:03;14.60;;;10.30;;
9374;SDS011;4727;51.202;6.344;2022-10-31T11:52:13;16.20;;;10.87;;
9374;SDS011;4727;51.202;6.344;2022-10-31T12:00:20;12.90;;;10.20;;
9374;SDS011;4727;51.202;6.344;2022-10-31T12:02:51;19.57;;;10.60;;
9374;SDS011;4727;51.202;6.344;2022-10-31T12:05:29;11.30;;;9.90;;
9374;SDS011;4727;51.202;6.344;2022-10-31T12:07:57;13.37;;;9.97;;
9374;SDS011;4727;51.202;6.344;2022-10-31T12:10:30;13.47;;;10.70;;
9374;SDS011;4727;51.202;6.344;2022-10-31T12:13:59;15.50;;;10.27;;
9374;SDS011;4727;51.202;6.344;2022-10-31T12:16:17;13.00;;;10.17;;
9374;SDS011;4727;51.202;6.344;2022-10-31T12:19:13;16.23;;;9.60;;
9374;SDS011;4727;51.202;6.344;2022-10-31T12:30:15;15.07;;;9.40;;
9374;SDS011;4727;51.202;6.344;2022-10-31T12:35:41;17.47;;;9.03;;
9374;SDS011;4727;51.202;6.344;2022-10-31T12:41:18;10.23;;;9.13;;
9374;SDS011;4727;51.202;6.344;2022-10-31T12:49:34;14.23;;;9.17;;
9374;SDS011;4727;51.202;6.344;2022-10-31T12:52:26;19.00;;;8.37;;
9374;SDS011;4727;51.202;6.344;2022-10-31T12:55:15;11.17;;;8.23;;
9374;SDS011;4727;51.202;6.344;2022-10-31T12:57:42;13.10;;;8.10;;
9374;SDS011;4727;51.202;6.344;2022-10-31T13:00:16;12.97;;;7.60;;
9374;SDS011;4727;51.202;6.344;2022-10-31T13:03:00;12.07;;;7.43;;
9374;SDS011;4727;51.202;6.344;2022-10-31T13:05:42;12.23;;;7.77;;
9374;SDS011;4727;51.202;6.344;2022-10-31T13:11:16;14.13;;;7.40;;
9374;SDS011;4727;51.202;6.344;2022-10-31T13:16:52;10.53;;;6.60;;
9374;SDS011;4727;51.202;6.344;2022-10-31T13:19:22;8.90;;;6.27;;
9374;SDS011;4727;51.202;6.344;2022-10-31T13:22:06;10.13;;;5.90;;
9374;SDS011;4727;51.202;6.344;2022-10-31T13:25:21;9.97;;;6.13;;
9374;SDS011;4727;51.202;6.344;2022-10-31T13:28:05;9.77;;;5.87;;
9374;SDS011;4727;51.202;6.344;2022-10-31T13:30:47;7.97;;;5.70;;
9374;SDS011;4727;51.202;6.344;2022-10-31T13:38:50;8.53;;;5.87;;
9374;SDS011;4727;51.202;6.344;2022-10-31T13:41:33;12.40;;;6.63;;
9374;SDS011;4727;51.202;6.344;2022-10-31T13:44:25;11.80;;;6.23;;
9374;SDS011;4727;51.202;6.344;2022-10-31T13:46:53;11.30;;;6.23;;
9374;SDS011;4727;51.202;6.344;2022-10-31T13:51:51;11.33;;;6.73;;
9374;SDS011;4727;51.202;6.344;2022-10-31T13:54:22;10.70;;;6.50;;
9374;SDS011;4727;51.202;6.344;2022-10-31T13:56:56;8.70;;;5.80;;
9374;SDS011;4727;51.202;6.344;2022-10-31T13:59:22;7.97;;;5.90;;
9374;SDS011;4727;51.202;6.344;2022-10-31T14:01:51;6.03;;;5.30;;
9374;SDS011;4727;51.202;6.344;2022-10-31T14:04:23;10.77;;;5.90;;
9374;SDS011;4727;51.202;6.344;2022-10-31T14:11:53;11.73;;;6.90;;
9374;SDS011;4727;51.202;6.344;2022-10-31T14:14:21;10.67;;;6.13;;
9374;SDS011;4727;51.202;6.344;2022-10-31T14:16:55;9.10;;;6.17;;
9374;SDS011;4727;51.202;6.344;2022-10-31T14:19:22;8.57;;;6.10;;
9374;SDS011;4727;51.202;6.344;2022-10-31T14:21:50;8.93;;;6.33;;
9374;SDS011;4727;51.202;6.344;2022-10-31T14:26:52;7.73;;;6.17;;
9374;SDS011;4727;51.202;6.344;2022-10-31T14:31:44;13.43;;;6.37;;
9374;SDS011;4727;51.202;6.344;2022-10-31T14:36:55;13.27;;;5.97;;
9374;SDS011;4727;51.202;6.344;2022-10-31T14:39:27;7.57;;;5.20;;
9374;SDS011;4727;51.202;6.344;2022-10-31T14:47:41;12.40;;;5.80;;
9374;SDS011;4727;51.202;6.344;2022-10-31T14:52:56;12.83;;;5.93;;
9374;SDS011;4727;51.202;6.344;2022-10-31T14:55:25;11.73;;;6.07;;
9374;SDS011;4727;51.202;6.344;2022-10-31T14:57:53;9.80;;;5.67;;
9374;SDS011;4727;51.202;6.344;2022-10-31T15:00:22;8.20;;;5.70;;
9374;SDS011;4727;51.202;6.344;2022-10-31T15:02:58;7.10;;;5.83;;
9374;SDS011;4727;51.202;6.344;2022-10-31T15:05:31;6.80;;;5.73;;
9374;SDS011;4727;51.202;6.344;2022-10-31T15:07:59;13.93;;;6.03;;
9374;SDS011;4727;51.202;6.344;2022-10-31T15:10:31;11.67;;;5.67;;
9374;SDS011;4727;51.202;6.344;2022-10-31T15:13:13;9.13;;;5.80;;
9374;SDS011;4727;51.202;6.344;2022-10-31T15:15:43;10.70;;;6.33;;
9374;SDS011;4727;51.202;6.344;2022-10-31T15:18:13;8.67;;;5.93;;
9374;SDS011;4727;51.202;6.344;2022-10-31T15:20:45;7.50;;;5.13;;
9374;SDS011;4727;51.202;6.344;2022-10-31T15:23:24;8.10;;;5.07;;
9374;SDS011;4727;51.202;6.344;2022-10-31T15:25:57;11.27;;;5.57;;
9374;SDS011;4727;51.202;6.344;2022-10-31T15:28:26;10.70;;;5.70;;
9374;SDS011;4727;51.202;6.344;2022-10-31T15:30:56;8.27;;;5.27;;
9374;SDS011;4727;51.202;6.344;2022-10-31T15:33:27;9.57;;;5.50;;
9374;SDS011;4727;51.202;6.344;2022-10-31T15:35:55;8.27;;;5.23;;
9374;SDS011;4727;51.202;6.344;2022-10-31T15:38:23;9.83;;;5.43;;
9374;SDS011;4727;51.202;6.344;2022-10-31T15:40:56;11.33;;;5.90;;
9374;SDS011;4727;51.202;6.344;2022-10-31T15:43:44;11.80;;;5.33;;
9374;SDS011;4727;51.202;6.344;2022-10-31T15:46:11;8.77;;;5.27;;
9374;SDS011;4727;51.202;6.344;2022-10-31T15:48:37;13.87;;;5.77;;
9374;SDS011;4727;51.202;6.344;2022-10-31T15:51:05;7.97;;;5.33;;
9374;SDS011;4727;51.202;6.344;2022-10-31T15:56:25;8.90;;;5.30;;
9374;SDS011;4727;51.202;6.344;2022-10-31T15:59:03;10.70;;;5.27;;
9374;SDS011;4727;51.202;6.344;2022-10-31T16:05:16;10.57;;;6.20;;
9374;SDS011;4727;51.202;6.344;2022-10-31T16:08:33;8.10;;;5.43;;
9374;SDS011;4727;51.202;6.344;2022-10-31T16:14:38;7.23;;;6.10;;
9374;SDS011;4727;51.202;6.344;2022-10-31T16:17:04;9.30;;;5.73;;
9374;SDS011;4727;51.202;6.344;2022-10-31T16:19:36;8.10;;;5.60;;
9374;SDS011;4727;51.202;6.344;2022-10-31T16:22:12;9.20;;;5.50;;
9374;SDS011;4727;51.202;6.344;2022-10-31T16:27:24;9.80;;;5.97;;
